createdAt,value
2023-05-13T00:00:00.433Z,64.98
2023-05-13T00:02:27.031Z,64.90
2023-05-13T00:04:53.590Z,65.19
2023-05-13T00:07:20.157Z,64.96
2023-05-13T00:09:46.703Z,65.85
2023-05-13T00:12:13.509Z,66.08
2023-05-13T00:14:40.201Z,65.67
2023-05-13T00:17:06.868Z,65.36
2023-05-13T00:19:33.331Z,65.79
2023-05-13T00:21:59.993Z,69.02
2023-05-13T00:24:26.565Z,67.31
2023-05-13T00:26:53.858Z,68.42
2023-05-13T00:29:20.405Z,71.54
2023-05-13T00:31:46.998Z,73.08
2023-05-13T00:34:13.750Z,73.22
2023-05-13T00:36:40.711Z,73.71
2023-05-13T00:39:07.196Z,70.82
2023-05-13T00:41:33.604Z,69.20
2023-05-13T00:44:00.184Z,68.49
2023-05-13T00:46:31.623Z,69.48
2023-05-13T00:48:58.663Z,72.04
2023-05-13T00:51:25.909Z,70.76
2023-05-13T00:53:53.271Z,69.40
2023-05-13T00:56:21.082Z,69.05
2023-05-13T00:58:48.472Z,69.06
2023-05-13T01:01:23.544Z,69.56
2023-05-13T01:04:02.967Z,69.86
2023-05-13T01:06:47.517Z,70.21
2023-05-13T01:09:47.210Z,70.69
2023-05-13T01:12:21.204Z,71.57
2023-05-13T01:15:12.319Z,70.46
2023-05-13T01:17:49.770Z,70.69
2023-05-13T01:20:21.490Z,71.41
2023-05-13T01:22:49.039Z,70.58
2023-05-13T01:25:15.581Z,69.83
2023-05-13T01:27:42.241Z,70.09
2023-05-13T01:30:12.032Z,70.50
2023-05-13T01:32:38.910Z,72.08
2023-05-13T01:35:07.740Z,71.45
2023-05-13T01:37:35.591Z,72.38
2023-05-13T01:40:05.817Z,72.12
2023-05-13T01:42:36.505Z,71.10
2023-05-13T01:45:04.233Z,70.88
2023-05-13T01:47:30.788Z,70.95
2023-05-13T01:49:57.810Z,70.86
2023-05-13T01:52:24.298Z,71.06
2023-05-13T01:54:50.769Z,70.91
2023-05-13T01:57:17.245Z,71.11
2023-05-13T01:59:43.842Z,71.45
2023-05-13T02:02:10.471Z,71.66
2023-05-13T02:04:37.069Z,71.46
2023-05-13T02:07:03.684Z,71.49
2023-05-13T02:09:30.218Z,71.88
2023-05-13T02:11:56.648Z,72.46
2023-05-13T02:14:23.127Z,72.73
2023-05-13T02:16:49.654Z,72.28
2023-05-13T02:19:16.291Z,72.29
2023-05-13T02:21:42.690Z,72.23
2023-05-13T02:24:09.325Z,72.50
2023-05-13T02:26:35.984Z,72.56
2023-05-13T02:29:02.946Z,72.90
2023-05-13T02:31:29.477Z,73.13
2023-05-13T02:33:56.088Z,73.14
2023-05-13T02:36:22.753Z,72.85
2023-05-13T02:38:49.816Z,72.96
2023-05-13T02:41:16.293Z,72.97
2023-05-13T02:43:42.725Z,73.16
2023-05-13T02:46:09.453Z,73.19
2023-05-13T02:48:36.078Z,73.36
2023-05-13T02:51:02.555Z,74.78
2023-05-13T02:53:29.073Z,77.36
2023-05-13T02:55:55.759Z,80.29
2023-05-13T02:58:22.156Z,80.12
2023-05-13T03:00:48.561Z,77.65
2023-05-13T03:03:15.104Z,77.15
2023-05-13T03:05:41.632Z,76.88
2023-05-13T03:08:08.052Z,77.05
2023-05-13T03:10:35.079Z,79.30
2023-05-13T03:13:01.672Z,77.82
2023-05-13T03:15:28.110Z,77.27
2023-05-13T03:17:54.635Z,77.24
2023-05-13T03:20:21.393Z,77.09
2023-05-13T03:22:48.100Z,76.86
2023-05-13T03:25:14.678Z,77.07
2023-05-13T03:27:41.133Z,77.04
2023-05-13T03:30:08.471Z,76.84
2023-05-13T03:32:35.651Z,76.76
2023-05-13T03:35:02.184Z,77.10
2023-05-13T03:37:28.698Z,76.88
2023-05-13T03:39:56.180Z,76.94
2023-05-13T03:42:22.707Z,76.83
2023-05-13T03:44:50.077Z,76.82
2023-05-13T03:47:16.584Z,76.71
2023-05-13T03:49:43.358Z,76.63
2023-05-13T03:52:10.475Z,76.53
2023-05-13T03:54:37.246Z,76.58
2023-05-13T03:57:03.715Z,76.31
2023-05-13T03:59:30.190Z,76.11
2023-05-13T04:01:56.630Z,76.09
2023-05-13T04:04:23.211Z,75.98
2023-05-13T04:06:49.616Z,75.85
2023-05-13T04:09:16.126Z,75.84
2023-05-13T04:11:42.823Z,75.79
2023-05-13T04:14:09.317Z,75.61
2023-05-13T04:16:35.825Z,75.30
2023-05-13T04:19:02.296Z,74.95
2023-05-13T04:21:29.111Z,74.95
2023-05-13T04:23:55.705Z,74.90
2023-05-13T04:26:22.213Z,75.04
2023-05-13T04:28:48.747Z,74.76
2023-05-13T04:31:15.591Z,74.87
2023-05-13T04:33:42.024Z,74.77
2023-05-13T04:36:15.077Z,74.33
2023-05-13T04:38:41.912Z,74.52
2023-05-13T04:41:08.375Z,74.45
2023-05-13T04:43:34.799Z,74.54
2023-05-13T04:46:01.420Z,74.25
2023-05-13T04:48:28.102Z,74.12
2023-05-13T04:50:55.304Z,73.79
2023-05-13T04:53:22.326Z,73.35
2023-05-13T04:55:50.176Z,73.03
2023-05-13T04:58:16.657Z,72.76
2023-05-13T05:00:43.470Z,72.26
2023-05-13T05:03:09.950Z,71.72
2023-05-13T05:05:36.481Z,71.05
2023-05-13T05:08:02.955Z,71.16
2023-05-13T05:10:29.416Z,71.34
2023-05-13T05:12:56.196Z,70.90
2023-05-13T05:15:22.949Z,70.32
2023-05-13T05:17:49.561Z,69.60
2023-05-13T05:20:16.360Z,68.87
2023-05-13T05:22:43.062Z,67.31
2023-05-13T05:25:11.083Z,67.15
2023-05-13T05:27:37.731Z,67.44
2023-05-13T05:30:05.160Z,65.99
2023-05-13T05:32:31.856Z,65.58
2023-05-13T05:34:58.313Z,65.35
2023-05-13T05:37:24.751Z,65.24
2023-05-13T05:39:51.173Z,64.86
2023-05-13T05:42:17.707Z,64.10
2023-05-13T05:44:44.245Z,62.27
2023-05-13T05:47:10.715Z,62.79
2023-05-13T05:49:37.360Z,62.82
2023-05-13T05:52:04.108Z,62.62
2023-05-13T05:54:30.645Z,61.34
2023-05-13T05:56:57.194Z,61.23
2023-05-13T05:59:23.721Z,60.73
2023-05-13T06:01:50.177Z,61.11
2023-05-13T06:04:16.812Z,61.26
2023-05-13T06:06:43.491Z,60.91
2023-05-13T06:09:10.028Z,60.78
2023-05-13T06:11:36.496Z,61.00
2023-05-13T06:14:02.961Z,60.88
2023-05-13T06:16:29.512Z,61.19
2023-05-13T06:18:56.076Z,60.96
2023-05-13T06:21:22.725Z,60.64
2023-05-13T06:23:49.301Z,61.03
2023-05-13T06:26:15.703Z,61.23
2023-05-13T06:28:42.296Z,60.95
2023-05-13T06:31:08.805Z,61.34
2023-05-13T06:33:35.347Z,60.92
2023-05-13T06:36:01.873Z,60.86
2023-05-13T06:38:28.294Z,61.35
2023-05-13T06:40:54.822Z,61.46
2023-05-13T06:43:21.369Z,61.55
2023-05-13T06:45:47.812Z,61.55
2023-05-13T06:48:15.823Z,61.36
2023-05-13T06:50:42.374Z,61.46
2023-05-13T06:53:09.905Z,61.67
2023-05-13T06:55:36.354Z,61.68
2023-05-13T06:58:03.156Z,61.50
2023-05-13T07:00:29.853Z,61.28
2023-05-13T07:02:56.489Z,60.64
2023-05-13T07:05:23.249Z,60.83
2023-05-13T07:07:49.737Z,60.84
2023-05-13T07:10:16.361Z,60.54
2023-05-13T07:12:42.970Z,60.39
2023-05-13T07:15:09.987Z,60.16
2023-05-13T07:17:36.502Z,59.86
2023-05-13T07:20:03.215Z,60.03
2023-05-13T07:22:29.653Z,59.19
2023-05-13T07:24:57.065Z,59.47
2023-05-13T07:27:23.622Z,58.89
2023-05-13T07:29:50.199Z,58.88
2023-05-13T07:32:16.847Z,58.17
2023-05-13T07:34:43.289Z,57.94
2023-05-13T07:37:09.923Z,56.74
2023-05-13T07:39:36.388Z,55.70
2023-05-13T07:42:03.764Z,55.94
2023-05-13T07:44:30.314Z,55.31
2023-05-13T07:46:56.923Z,54.99
2023-05-13T07:49:23.472Z,53.64
2023-05-13T07:51:50.597Z,53.19
2023-05-13T07:54:17.167Z,53.71
2023-05-13T07:56:43.844Z,51.53
2023-05-13T07:59:10.278Z,51.22
2023-05-13T08:01:36.836Z,50.71
2023-05-13T08:04:03.507Z,51.52
2023-05-13T08:06:30.064Z,51.53
2023-05-13T08:08:56.531Z,50.20
2023-05-13T08:11:23.362Z,49.69
2023-05-13T08:13:49.870Z,50.82
2023-05-13T08:16:16.467Z,49.14
2023-05-13T08:18:43.202Z,47.06
2023-05-13T08:21:09.831Z,46.48
2023-05-13T08:23:45.457Z,45.49
2023-05-13T08:26:13.264Z,45.67
2023-05-13T08:28:39.950Z,42.05
2023-05-13T08:31:06.535Z,41.30
2023-05-13T08:33:33.295Z,43.55
2023-05-13T08:36:01.035Z,42.27
2023-05-13T08:38:27.731Z,42.23
2023-05-13T08:40:54.393Z,42.79
2023-05-13T08:43:23.836Z,43.49
2023-05-13T08:45:51.939Z,41.92
2023-05-13T08:48:20.096Z,40.28
2023-05-13T08:50:47.147Z,42.00
2023-05-13T08:53:17.073Z,43.11
2023-05-13T08:55:43.590Z,42.03
2023-05-13T08:58:10.326Z,41.64
2023-05-13T09:00:37.105Z,39.31
2023-05-13T09:03:03.803Z,39.42
2023-05-13T09:05:30.844Z,40.66
2023-05-13T09:07:57.516Z,40.15
2023-05-13T09:10:24.161Z,41.04
2023-05-13T09:12:51.932Z,41.11
2023-05-13T09:15:24.233Z,39.85
2023-05-13T09:18:03.390Z,40.75
2023-05-13T09:20:30.604Z,41.65
2023-05-13T09:23:02.239Z,41.26
2023-05-13T09:25:29.681Z,41.13
2023-05-13T09:27:57.855Z,40.76
2023-05-13T09:30:37.926Z,40.87
2023-05-13T09:33:16.349Z,41.19
2023-05-13T09:35:53.629Z,40.54
2023-05-13T09:38:28.237Z,40.52
2023-05-13T09:40:55.665Z,40.56
2023-05-13T09:43:23.907Z,41.09
2023-05-13T09:45:58.463Z,40.54
2023-05-13T09:48:26.821Z,40.56
2023-05-13T09:50:53.771Z,40.23
2023-05-13T09:53:20.432Z,41.07
2023-05-13T09:55:47.972Z,41.20
2023-05-13T09:58:14.827Z,40.20
2023-05-13T10:00:43.472Z,40.68
2023-05-13T10:03:11.159Z,40.70
2023-05-13T10:05:39.583Z,40.58
2023-05-13T10:08:09.306Z,40.30
2023-05-13T10:10:36.910Z,40.08
2023-05-13T10:13:12.286Z,38.96
2023-05-13T10:15:53.556Z,38.85
2023-05-13T10:18:21.613Z,38.88
2023-05-13T10:20:48.658Z,39.08
2023-05-13T10:23:15.286Z,39.50
2023-05-13T10:25:43.576Z,38.83
2023-05-13T10:28:10.453Z,38.91
2023-05-13T10:30:37.257Z,39.17
2023-05-13T10:33:04.197Z,38.94
2023-05-13T10:35:37.089Z,38.84
2023-05-13T10:38:28.812Z,38.83
2023-05-13T10:41:13.698Z,39.00
2023-05-13T10:43:40.472Z,38.22
2023-05-13T10:46:16.018Z,38.87
2023-05-13T10:48:47.571Z,38.82
2023-05-13T10:51:15.968Z,38.82
2023-05-13T10:53:47.400Z,38.26
2023-05-13T10:56:16.104Z,38.81
2023-05-13T10:58:42.603Z,37.93
2023-05-13T11:01:25.766Z,37.85
2023-05-13T11:04:01.988Z,38.08
2023-05-13T11:06:50.244Z,38.03
2023-05-13T11:09:22.843Z,38.08
2023-05-13T11:11:54.564Z,38.16
2023-05-13T11:14:22.870Z,37.84
2023-05-13T11:16:54.717Z,37.87
2023-05-13T11:19:27.907Z,38.14
2023-05-13T11:21:57.955Z,37.87
2023-05-13T11:24:27.080Z,37.76
2023-05-13T11:26:55.841Z,37.92
2023-05-13T11:29:35.971Z,37.94
2023-05-13T11:32:05.165Z,37.94
2023-05-13T11:34:33.454Z,38.19
2023-05-13T11:37:12.101Z,38.28
2023-05-13T11:39:40.248Z,38.10
2023-05-13T11:42:09.066Z,37.80
2023-05-13T11:44:36.721Z,37.88
2023-05-13T11:47:05.360Z,38.13
2023-05-13T11:49:45.947Z,37.61
2023-05-13T11:52:15.157Z,37.90
2023-05-13T11:54:47.692Z,38.05
2023-05-13T11:57:35.097Z,37.38
2023-05-13T12:00:04.097Z,37.06
2023-05-13T12:02:36.500Z,36.92
2023-05-13T12:05:06.137Z,37.28
2023-05-13T12:07:33.417Z,37.16
2023-05-13T12:10:01.907Z,36.66
2023-05-13T12:12:31.169Z,36.81
2023-05-13T12:15:03.032Z,36.54
2023-05-13T12:17:31.581Z,36.20
2023-05-13T12:20:06.124Z,36.42
2023-05-13T12:22:54.029Z,35.85
2023-05-13T12:25:42.471Z,35.71
2023-05-13T12:28:14.768Z,35.06
2023-05-13T12:30:43.671Z,35.06
2023-05-13T12:33:14.856Z,35.03
2023-05-13T12:35:41.511Z,35.22
2023-05-13T12:38:08.224Z,34.84
2023-05-13T12:40:34.746Z,34.52
2023-05-13T12:43:02.392Z,34.69
2023-05-13T12:45:33.033Z,35.39
2023-05-13T12:48:00.644Z,35.28
2023-05-13T12:50:27.474Z,35.68
2023-05-13T12:52:54.446Z,35.55
2023-05-13T12:55:21.464Z,35.43
2023-05-13T12:57:56.345Z,35.84
2023-05-13T13:00:24.175Z,35.75
2023-05-13T13:02:51.481Z,35.92
2023-05-13T13:05:18.041Z,36.00
2023-05-13T13:07:44.552Z,36.00
2023-05-13T13:10:11.011Z,35.89
2023-05-13T13:12:38.035Z,35.96
2023-05-13T13:15:06.299Z,35.70
2023-05-13T13:17:32.881Z,35.65
2023-05-13T13:19:59.530Z,35.63
2023-05-13T13:22:27.083Z,35.53
2023-05-13T13:24:53.606Z,35.85
2023-05-13T13:27:20.056Z,36.11
2023-05-13T13:29:46.609Z,36.58
2023-05-13T13:32:13.715Z,36.88
2023-05-13T13:34:40.188Z,37.09
2023-05-13T13:37:06.666Z,37.10
2023-05-13T13:39:33.185Z,36.60
2023-05-13T13:41:59.656Z,36.25
2023-05-13T13:44:26.884Z,36.14
2023-05-13T13:46:55.097Z,36.03
2023-05-13T13:49:24.033Z,36.03
2023-05-13T13:51:53.832Z,35.83
2023-05-13T13:54:20.578Z,35.94
2023-05-13T13:56:48.324Z,35.66
2023-05-13T13:59:14.899Z,35.64
2023-05-13T14:01:41.393Z,35.37
2023-05-13T14:04:16.949Z,35.33
2023-05-13T14:06:44.991Z,35.43
2023-05-13T14:09:11.629Z,35.27
2023-05-13T14:11:38.299Z,35.21
2023-05-13T14:14:04.734Z,34.78
2023-05-13T14:16:31.180Z,34.95
2023-05-13T14:18:57.945Z,34.76
2023-05-13T14:21:24.688Z,34.37
2023-05-13T14:23:51.142Z,33.78
2023-05-13T14:26:17.838Z,33.38
2023-05-13T14:28:44.870Z,33.74
2023-05-13T14:31:11.618Z,34.26
2023-05-13T14:33:38.148Z,34.52
2023-05-13T14:36:06.045Z,34.81
2023-05-13T14:38:32.476Z,34.61
2023-05-13T14:40:59.101Z,34.83
2023-05-13T14:43:25.928Z,35.02
2023-05-13T14:45:52.405Z,34.93
2023-05-13T14:48:19.489Z,35.13
2023-05-13T14:50:46.784Z,35.46
2023-05-13T14:53:13.929Z,35.73
2023-05-13T14:55:40.590Z,36.07
2023-05-13T14:58:07.163Z,36.27
2023-05-13T15:00:33.680Z,36.48
2023-05-13T15:03:01.310Z,36.52
2023-05-13T15:05:27.914Z,36.61
2023-05-13T15:07:54.542Z,36.63
2023-05-13T15:10:21.322Z,36.85
2023-05-13T15:12:48.053Z,36.98
2023-05-13T15:15:14.540Z,36.87
2023-05-13T15:17:41.054Z,36.80
2023-05-13T15:20:08.624Z,36.88
2023-05-13T15:22:35.057Z,36.89
2023-05-13T15:25:01.714Z,36.99
2023-05-13T15:27:28.262Z,37.15
2023-05-13T15:29:55.231Z,37.26
2023-05-13T15:32:21.876Z,37.19
2023-05-13T15:34:48.354Z,37.04
2023-05-13T15:39:44.189Z,37.15
2023-05-13T15:42:10.676Z,36.88
2023-05-13T15:44:37.193Z,36.90
2023-05-13T15:47:04.204Z,36.96
2023-05-13T15:49:30.777Z,36.96
2023-05-13T15:51:57.161Z,37.19
2023-05-13T15:54:23.631Z,37.19
2023-05-13T15:56:50.093Z,37.40
2023-05-13T15:59:16.616Z,37.64
2023-05-13T16:01:43.127Z,37.77
2023-05-13T16:04:09.999Z,38.00
2023-05-13T16:06:36.455Z,38.12
2023-05-13T16:09:03.020Z,38.18
2023-05-13T16:11:29.570Z,38.44
2023-05-13T16:13:56.013Z,38.71
2023-05-13T16:16:22.582Z,38.73
2023-05-13T16:18:49.431Z,38.97
2023-05-13T16:21:16.132Z,38.89
2023-05-13T16:23:42.652Z,39.23
2023-05-13T16:26:09.264Z,39.29
2023-05-13T16:28:35.718Z,39.59
2023-05-13T16:31:02.151Z,39.59
2023-05-13T16:33:28.577Z,39.99
2023-05-13T16:35:55.005Z,40.71
2023-05-13T16:38:21.743Z,40.84
2023-05-13T16:40:48.805Z,41.00
2023-05-13T16:43:15.354Z,41.14
2023-05-13T16:45:41.852Z,41.63
2023-05-13T16:48:08.521Z,41.75
2023-05-13T16:50:35.077Z,42.02
2023-05-13T16:53:01.618Z,42.25
2023-05-13T16:55:28.364Z,42.51
2023-05-13T16:57:54.844Z,42.24
2023-05-13T17:00:21.926Z,42.47
2023-05-13T17:02:48.761Z,42.44
2023-05-13T17:05:15.437Z,42.44
2023-05-13T17:07:42.082Z,42.43
2023-05-13T17:10:09.147Z,42.83
2023-05-13T17:12:35.600Z,43.04
2023-05-13T17:15:02.071Z,43.19
2023-05-13T17:17:28.548Z,44.08
2023-05-13T17:19:55.049Z,43.92
2023-05-13T17:22:21.505Z,43.83
2023-05-13T17:24:47.960Z,44.95
2023-05-13T17:27:14.694Z,44.20
2023-05-13T17:29:41.127Z,44.38
2023-05-13T17:32:07.969Z,44.95
2023-05-13T17:34:34.386Z,44.93
2023-05-13T17:37:00.830Z,44.80
2023-05-13T17:39:27.455Z,45.00
2023-05-13T17:41:53.967Z,45.28
2023-05-13T17:44:20.423Z,45.43
2023-05-13T17:46:46.817Z,45.65
2023-05-13T17:49:13.362Z,46.00
2023-05-13T17:51:40.054Z,45.56
2023-05-13T17:54:06.566Z,45.49
2023-05-13T17:56:33.150Z,45.88
2023-05-13T17:58:59.577Z,46.06
2023-05-13T18:01:26.066Z,46.37
2023-05-13T18:03:52.595Z,46.60
2023-05-13T18:06:19.103Z,46.93
2023-05-13T18:08:45.664Z,47.23
2023-05-13T18:11:12.112Z,47.78
2023-05-13T18:13:38.657Z,47.46
2023-05-13T18:16:05.547Z,48.15
2023-05-13T18:18:32.067Z,48.44
2023-05-13T18:20:58.689Z,48.30
2023-05-13T18:23:25.153Z,48.31
2023-05-13T18:25:55.898Z,48.83
2023-05-13T18:28:23.442Z,48.90
2023-05-13T18:30:49.939Z,49.28
2023-05-13T18:33:19.951Z,49.40
2023-05-13T18:35:46.406Z,49.29
2023-05-13T18:38:13.034Z,49.64
2023-05-13T18:40:39.426Z,49.61
2023-05-13T18:43:05.905Z,49.77
2023-05-13T18:45:32.395Z,50.03
2023-05-13T18:47:58.983Z,50.11
2023-05-13T18:50:25.612Z,50.67
2023-05-13T18:52:52.029Z,52.24
2023-05-13T18:55:18.617Z,52.64
2023-05-13T18:57:45.165Z,52.86
2023-05-13T19:00:12.313Z,52.17
2023-05-13T19:02:39.209Z,52.16
2023-05-13T19:05:06.946Z,52.36
2023-05-13T19:07:33.811Z,52.67
2023-05-13T19:10:00.374Z,52.72
2023-05-13T19:12:26.899Z,52.76
2023-05-13T19:14:53.298Z,53.10
2023-05-13T19:17:19.758Z,53.26
2023-05-13T19:19:46.736Z,53.75
2023-05-13T19:22:13.282Z,53.93
2023-05-13T19:24:39.810Z,53.75
2023-05-13T19:27:08.479Z,54.37
2023-05-13T19:29:35.217Z,54.75
2023-05-13T19:32:01.670Z,55.20
2023-05-13T19:34:28.275Z,55.77
2023-05-13T19:36:55.678Z,55.39
2023-05-13T19:39:22.158Z,56.20
2023-05-13T19:41:48.648Z,56.30
2023-05-13T19:44:15.297Z,56.20
2023-05-13T19:46:41.769Z,56.21
2023-05-13T19:49:08.450Z,56.55
2023-05-13T19:51:34.857Z,56.68
2023-05-13T19:54:01.394Z,56.94
2023-05-13T19:56:27.881Z,57.27
2023-05-13T19:58:54.301Z,57.49
2023-05-13T20:01:20.757Z,57.95
2023-05-13T20:03:47.453Z,57.76
2023-05-13T20:06:13.912Z,57.93
2023-05-13T20:08:40.379Z,58.33
2023-05-13T20:11:07.014Z,58.80
2023-05-13T20:13:33.478Z,58.56
2023-05-13T20:15:59.921Z,59.40
2023-05-13T20:18:26.467Z,59.54
2023-05-13T20:20:53.015Z,59.93
2023-05-13T20:23:19.479Z,59.83
2023-05-13T20:25:46.446Z,60.12
2023-05-13T20:28:12.829Z,60.10
2023-05-13T20:30:42.892Z,60.85
2023-05-13T20:33:09.376Z,60.78
2023-05-13T20:35:36.054Z,62.89
2023-05-13T20:38:02.684Z,63.11
2023-05-13T20:40:29.329Z,64.63
2023-05-13T20:42:55.759Z,62.85
2023-05-13T20:45:22.246Z,62.59
2023-05-13T20:47:48.816Z,62.48
2023-05-13T20:50:15.428Z,62.64
2023-05-13T20:52:42.087Z,62.78
2023-05-13T20:55:09.389Z,62.79
2023-05-13T20:57:36.097Z,63.21
2023-05-13T21:00:02.652Z,63.02
2023-05-13T21:02:29.098Z,63.61
2023-05-13T21:04:55.594Z,63.53
2023-05-13T21:07:22.099Z,64.05
2023-05-13T21:09:48.856Z,64.08
2023-05-13T21:12:15.294Z,64.64
2023-05-13T21:14:41.839Z,69.85
2023-05-13T21:17:08.758Z,66.46
2023-05-13T21:19:35.261Z,67.14
2023-05-13T21:22:01.857Z,66.93
2023-05-13T21:24:28.526Z,66.90
2023-05-13T21:26:54.914Z,66.75
2023-05-13T21:29:21.419Z,66.62
2023-05-13T21:31:48.093Z,66.76
2023-05-13T21:34:14.741Z,67.54
2023-05-13T21:36:41.259Z,68.63
2023-05-13T21:39:07.755Z,69.28
2023-05-13T21:41:35.707Z,69.94
2023-05-13T21:44:02.159Z,71.20
2023-05-13T21:46:28.640Z,75.91
2023-05-13T21:48:55.079Z,72.35
2023-05-13T21:51:22.315Z,71.07
2023-05-13T21:53:48.874Z,71.96
2023-05-13T21:56:15.325Z,72.05
2023-05-13T21:58:42.066Z,71.70
2023-05-13T22:01:08.777Z,70.97
2023-05-13T22:03:35.290Z,70.98
2023-05-13T22:06:01.932Z,71.49
2023-05-13T22:08:29.827Z,71.86
2023-05-13T22:10:56.308Z,78.67
2023-05-13T22:13:22.760Z,76.13
2023-05-13T22:15:49.399Z,74.23
2023-05-13T22:18:16.074Z,74.25
2023-05-13T22:20:42.823Z,74.65
2023-05-13T22:23:09.358Z,74.44
2023-05-13T22:25:35.782Z,74.30
2023-05-13T22:28:02.182Z,74.21
2023-05-13T22:30:28.687Z,73.90
2023-05-13T22:32:55.124Z,74.01
2023-05-13T22:35:21.778Z,74.38
2023-05-13T22:37:48.423Z,75.45
2023-05-13T22:40:14.901Z,75.65
2023-05-13T22:42:41.384Z,75.08
2023-05-13T22:45:08.630Z,75.25
2023-05-13T22:47:36.218Z,75.57
2023-05-13T22:50:04.583Z,79.08
2023-05-13T22:52:31.126Z,80.45
2023-05-13T22:54:57.606Z,77.67
2023-05-13T22:57:24.107Z,77.14
2023-05-13T22:59:50.966Z,78.81
2023-05-13T23:02:17.595Z,86.95
2023-05-13T23:04:44.208Z,93.50
2023-05-13T23:07:10.794Z,90.88
2023-05-13T23:09:37.424Z,87.84
2023-05-13T23:12:04.519Z,88.43
2023-05-13T23:14:31.039Z,87.80
2023-05-13T23:16:57.486Z,87.12
2023-05-13T23:19:27.537Z,85.22
2023-05-13T23:21:54.381Z,83.89
2023-05-13T23:24:20.952Z,83.52
2023-05-13T23:26:48.920Z,85.39
2023-05-13T23:29:15.509Z,84.90
2023-05-13T23:31:42.503Z,83.80
2023-05-13T23:34:09.367Z,84.54
2023-05-13T23:36:35.897Z,89.35
2023-05-13T23:39:02.672Z,85.51
2023-05-13T23:41:29.190Z,85.01
2023-05-13T23:43:55.704Z,84.34
2023-05-13T23:46:22.413Z,83.60
2023-05-13T23:48:48.902Z,83.65
2023-05-13T23:51:15.453Z,83.23
2023-05-13T23:53:41.999Z,84.06
2023-05-13T23:56:08.512Z,83.69
2023-05-13T23:58:34.957Z,83.96
